Time;durP1;ratioP1;P1;durP2;ratioP2;P2;SDS_P1;SDS_P2;PMS_P1;PMS_P2;Temp;Humidity;BMP_temperature;BMP_pressure;BME280_temperature;BME280_humidity;BME280_pressure;Samples;Min_cycle;Max_cycle;Signal;HPM_P1;HPM_P2
2023/01/16 00:01:23;;;;;;;9.10;3.85;;;4.80;99.90;;;;;;5053789;28;20474;-64
2023/01/16 00:03:49;;;;;;;6.82;3.60;;;4.80;99.90;;;;;;5052597;28;20076;-65
2023/01/16 00:06:15;;;;;;;7.47;4.18;;;4.80;99.90;;;;;;5053429;28;20044;-65
2023/01/16 00:08:42;;;;;;;8.52;3.72;;;4.80;99.90;;;;;;5052879;28;20123;-65
2023/01/16 00:11:08;;;;;;;8.65;3.83;;;4.80;99.90;;;;;;5052785;28;20053;-64
2023/01/16 00:13:34;;;;;;;7.75;4.10;;;4.80;99.90;;;;;;5036879;28;20478;-64
2023/01/16 00:16:00;;;;;;;9.35;3.63;;;4.80;99.90;;;;;;5052239;28;20048;-65
2023/01/16 00:18:25;;;;;;;7.30;3.88;;;4.80;99.90;;;;;;5054454;28;20095;-65
2023/01/16 00:20:51;;;;;;;6.07;3.33;;;4.90;99.90;;;;;;5052674;28;20478;-65
2023/01/16 00:23:17;;;;;;;7.88;3.75;;;4.80;99.90;;;;;;5052516;28;20059;-65
2023/01/16 00:25:43;;;;;;;7.30;3.60;;;4.80;99.90;;;;;;5052277;28;20132;-65
2023/01/16 00:28:11;;;;;;;10.07;3.90;;;4.80;99.90;;;;;;5054477;28;20051;-65
2023/01/16 00:30:37;;;;;;;6.93;3.05;;;4.80;99.90;;;;;;5051893;28;20032;-64
2023/01/16 00:33:04;;;;;;;8.05;3.20;;;4.80;99.90;;;;;;5053861;28;20040;-64
2023/01/16 00:35:30;;;;;;;6.18;2.85;;;4.80;99.90;;;;;;5052871;28;20457;-64
2023/01/16 00:37:56;;;;;;;8.15;2.75;;;4.80;99.90;;;;;;5051657;28;20393;-64
2023/01/16 00:40:22;;;;;;;5.95;3.03;;;4.80;99.90;;;;;;5052864;28;20125;-64
2023/01/16 00:42:48;;;;;;;8.15;3.35;;;4.80;99.90;;;;;;5052140;28;20051;-65
2023/01/16 00:45:14;;;;;;;7.65;3.47;;;4.70;99.90;;;;;;5052044;28;20119;-64
2023/01/16 00:47:39;;;;;;;6.93;3.47;;;4.80;99.90;;;;;;5052108;28;20438;-64
2023/01/16 00:50:06;;;;;;;8.07;3.80;;;4.80;99.90;;;;;;5052780;28;20040;-64
2023/01/16 00:52:32;;;;;;;7.35;4.10;;;4.80;99.90;;;;;;5052965;28;20076;-64
2023/01/16 00:54:57;;;;;;;6.82;3.45;;;4.80;99.90;;;;;;5053576;28;20077;-64
2023/01/16 00:57:23;;;;;;;9.85;4.43;;;4.80;99.90;;;;;;5052599;28;20032;-64
2023/01/16 00:59:48;;;;;;;8.13;3.83;;;4.70;99.90;;;;;;5051085;28;20041;-64
2023/01/16 01:02:14;;;;;;;11.75;4.75;;;4.70;99.90;;;;;;5052289;28;20049;-64
2023/01/16 01:04:40;;;;;;;11.80;5.00;;;4.70;99.90;;;;;;5053100;28;20084;-64
2023/01/16 01:07:06;;;;;;;7.90;4.32;;;4.70;99.90;;;;;;5052826;28;20073;-64
2023/01/16 01:09:32;;;;;;;15.85;5.32;;;4.60;99.90;;;;;;5052436;28;20068;-64
2023/01/16 01:11:58;;;;;;;9.95;4.65;;;4.60;99.90;;;;;;5052286;28;20037;-64
2023/01/16 01:14:25;;;;;;;8.70;4.03;;;4.60;99.90;;;;;;5051296;28;20041;-65
2023/01/16 01:16:51;;;;;;;9.10;4.65;;;4.60;99.90;;;;;;5050617;28;20042;-64
2023/01/16 01:19:16;;;;;;;8.18;5.15;;;4.60;99.90;;;;;;5052534;28;20052;-65
2023/01/16 01:21:45;;;;;;;13.05;5.00;;;4.60;99.90;;;;;;5035157;28;20056;-64
2023/01/16 01:24:11;;;;;;;11.10;5.18;;;4.60;99.90;;;;;;5053011;28;20102;-65
2023/01/16 01:26:38;;;;;;;12.77;5.28;;;4.60;99.90;;;;;;5052261;28;20120;-64
2023/01/16 01:29:03;;;;;;;9.75;5.00;;;4.60;99.90;;;;;;5053241;28;20048;-64
2023/01/16 01:31:29;;;;;;;11.85;4.78;;;4.60;99.90;;;;;;5052920;28;20033;-64
2023/01/16 01:33:55;;;;;;;7.55;3.95;;;4.60;99.90;;;;;;5033899;28;20063;-64
2023/01/16 01:36:20;;;;;;;8.23;5.43;;;4.60;99.90;;;;;;5052880;28;20065;-64
2023/01/16 01:38:49;;;;;;;11.85;4.85;;;4.60;99.90;;;;;;5051376;28;20044;-64
2023/01/16 01:41:15;;;;;;;9.13;4.43;;;4.60;99.90;;;;;;5050996;28;20048;-64
2023/01/16 01:43:50;;;;;;;10.95;5.20;;;4.60;99.90;;;;;;5051357;28;20048;-64
2023/01/16 01:46:30;;;;;;;11.77;4.70;;;4.60;99.90;;;;;;5051495;28;20049;-64
2023/01/16 01:49:20;;;;;;;8.18;4.63;;;4.60;99.90;;;;;;5050676;28;20076;-64
2023/01/16 01:51:46;;;;;;;10.73;5.45;;;4.60;99.90;;;;;;5050859;28;20041;-64
2023/01/16 01:54:17;;;;;;;12.35;4.95;;;4.60;99.90;;;;;;5052788;28;20029;-64
2023/01/16 01:56:51;;;;;;;9.05;4.65;;;4.50;99.90;;;;;;5052038;28;20044;-64
2023/01/16 01:59:26;;;;;;;8.95;4.63;;;4.60;99.90;;;;;;5052787;28;20041;-64
2023/01/16 02:01:54;;;;;;;9.90;5.18;;;4.50;99.90;;;;;;5051412;28;20082;-64
2023/01/16 02:04:24;;;;;;;7.35;4.03;;;4.50;99.90;;;;;;5051607;28;20389;-64
2023/01/16 02:06:56;;;;;;;8.75;4.53;;;4.50;99.90;;;;;;5051828;28;20075;-64
2023/01/16 02:09:24;;;;;;;8.90;4.90;;;4.40;99.90;;;;;;5050692;28;20571;-64
2023/01/16 02:11:55;;;;;;;11.70;4.32;;;4.30;99.90;;;;;;5034139;28;20041;-64
2023/01/16 02:14:22;;;;;;;10.02;4.03;;;4.30;99.90;;;;;;5052351;28;20490;-64
2023/01/16 02:20:05;;;;;;;11.52;4.75;;;4.20;99.90;;;;;;5050714;28;20049;-64
2023/01/16 02:22:54;;;;;;;8.57;4.00;;;4.20;99.90;;;;;;5051456;28;20132;-64
2023/01/16 02:25:48;;;;;;;10.35;4.25;;;4.10;99.90;;;;;;5052125;28;20049;-64
2023/01/16 02:28:32;;;;;;;7.47;3.88;;;4.20;99.90;;;;;;5052068;28;20143;-65
2023/01/16 02:31:08;;;;;;;8.80;3.88;;;4.20;99.90;;;;;;5051462;28;20051;-64
2023/01/16 02:34:11;;;;;;;8.48;3.92;;;4.20;99.90;;;;;;5051897;28;20393;-64
2023/01/16 02:37:16;;;;;;;7.78;3.88;;;4.20;99.90;;;;;;5033137;28;20037;-64
2023/01/16 02:39:52;;;;;;;11.63;4.40;;;4.20;99.90;;;;;;5044016;28;20081;-64
2023/01/16 02:42:44;;;;;;;8.50;3.63;;;4.20;99.90;;;;;;5034473;28;20056;-64
2023/01/16 02:45:29;;;;;;;7.32;3.30;;;4.20;99.90;;;;;;5050281;28;20395;-64
2023/01/16 02:47:57;;;;;;;;;;;4.20;99.90;;;;;;5050863;28;20041;-64
2023/01/16 02:50:47;;;;;;;9.63;3.65;;;4.30;99.90;;;;;;5050726;28;20293;-64
2023/01/16 02:53:29;;;;;;;8.63;3.85;;;4.20;99.90;;;;;;5050817;28;20121;-66
2023/01/16 02:56:02;;;;;;;7.82;3.90;;;4.20;99.90;;;;;;5050203;28;20046;-67
2023/01/16 02:58:30;;;;;;;8.65;4.28;;;4.20;99.90;;;;;;5049940;28;20041;-67
2023/01/16 03:00:58;;;;;;;6.25;3.67;;;4.20;99.90;;;;;;5033691;28;20049;-67
2023/01/16 03:03:40;;;;;;;8.68;3.63;;;4.20;99.90;;;;;;5050957;28;20370;-67
2023/01/16 03:06:19;;;;;;;8.52;3.85;;;4.20;99.90;;;;;;5051517;28;20094;-64
2023/01/16 03:09:00;;;;;;;6.78;3.60;;;4.20;99.90;;;;;;5033384;28;20047;-64
2023/01/16 03:11:28;;;;;;;8.48;4.82;;;4.20;99.90;;;;;;5050657;28;20055;-64
2023/01/16 03:14:35;;;;;;;9.48;4.72;;;4.20;99.90;;;;;;5049243;28;20547;-64
2023/01/16 03:17:21;;;;;;;10.27;4.82;;;4.20;99.90;;;;;;5042125;28;20045;-64
2023/01/16 03:19:56;;;;;;;10.20;4.95;;;4.20;99.90;;;;;;5019222;28;20432;-64
2023/01/16 03:23:12;;;;;;;11.25;5.35;;;4.20;99.90;;;;;;5052077;28;20033;-64
2023/01/16 03:25:48;;;;;;;10.70;4.30;;;4.20;99.90;;;;;;5046136;28;20052;-64
2023/01/16 03:28:26;;;;;;;10.00;4.40;;;4.20;99.90;;;;;;5051477;28;20044;-64
2023/01/16 03:31:15;;;;;;;12.00;4.90;;;4.30;99.90;;;;;;5051037;28;20074;-64
2023/01/16 03:33:48;;;;;;;14.88;5.50;;;4.30;99.90;;;;;;5050413;28;20048;-64
2023/01/16 03:36:26;;;;;;;13.00;5.60;;;4.30;99.90;;;;;;5050313;28;20041;-64
2023/01/16 03:38:55;;;;;;;10.43;5.38;;;4.30;99.90;;;;;;5051146;28;20045;-64
2023/01/16 03:41:26;;;;;;;9.65;5.07;;;4.40;99.90;;;;;;5054433;28;20072;-64
2023/01/16 03:43:55;;;;;;;12.50;6.40;;;4.30;99.90;;;;;;5054578;28;20512;-64
2023/01/16 03:46:28;;;;;;;9.30;5.82;;;4.30;99.90;;;;;;5054300;28;20423;-66
2023/01/16 03:49:01;;;;;;;13.05;6.55;;;4.30;99.90;;;;;;5035798;28;20120;-67
2023/01/16 03:51:47;;;;;;;10.18;6.18;;;4.40;99.90;;;;;;5053555;28;20521;-67
2023/01/16 03:54:25;;;;;;;12.70;6.80;;;4.30;99.90;;;;;;5054356;28;20093;-66
2023/01/16 03:57:12;;;;;;;8.50;5.22;;;4.30;99.90;;;;;;5054292;28;20080;-67
2023/01/16 03:59:40;;;;;;;11.40;6.68;;;4.40;99.90;;;;;;5054530;28;20406;-65
2023/01/16 04:02:16;;;;;;;10.82;5.93;;;4.30;99.90;;;;;;5052658;28;20041;-64
2023/01/16 04:05:00;;;;;;;11.02;6.30;;;4.40;99.90;;;;;;5036306;28;20037;-64
2023/01/16 04:07:35;;;;;;;15.35;6.72;;;4.30;99.90;;;;;;5053465;28;20045;-64
2023/01/16 04:10:15;;;;;;;12.25;7.13;;;4.30;99.90;;;;;;5035715;28;20390;-64
2023/01/16 04:12:49;;;;;;;13.23;6.65;;;4.40;99.90;;;;;;5052993;28;20123;-64
2023/01/16 04:15:17;;;;;;;11.97;5.57;;;4.40;99.90;;;;;;5036043;28;20474;-64
2023/01/16 04:17:43;;;;;;;13.90;6.82;;;4.40;99.90;;;;;;5052731;28;20045;-64
2023/01/16 04:20:09;;;;;;;11.25;5.80;;;4.40;99.90;;;;;;5054531;28;20040;-64
2023/01/16 04:22:35;;;;;;;13.52;5.57;;;4.40;99.90;;;;;;5052206;28;20044;-64
2023/01/16 04:25:05;;;;;;;10.20;6.15;;;4.40;99.90;;;;;;5054034;28;20056;-64
2023/01/16 04:27:31;;;;;;;11.07;5.57;;;4.40;99.90;;;;;;5036520;28;20478;-64
2023/01/16 04:29:56;;;;;;;11.68;6.25;;;4.40;99.90;;;;;;5052006;28;20106;-64
2023/01/16 04:32:22;;;;;;;11.40;5.63;;;4.40;99.90;;;;;;5054306;28;20394;-64
2023/01/16 04:34:48;;;;;;;12.65;5.70;;;4.40;99.90;;;;;;5053590;28;20164;-64
2023/01/16 04:37:15;;;;;;;10.30;5.97;;;4.40;99.90;;;;;;5053446;28;20777;-64
2023/01/16 04:39:41;;;;;;;17.55;6.13;;;4.40;99.90;;;;;;5052150;28;20041;-65
2023/01/16 04:42:08;;;;;;;11.23;6.57;;;4.40;99.90;;;;;;5054060;28;20041;-65
2023/01/16 04:44:33;;;;;;;12.38;6.45;;;4.40;99.90;;;;;;5051888;28;20052;-65
2023/01/16 04:46:59;;;;;;;13.43;6.05;;;4.50;99.90;;;;;;5053653;28;20037;-64
2023/01/16 04:49:25;;;;;;;16.05;6.70;;;4.50;99.90;;;;;;5052538;28;20029;-64
2023/01/16 04:51:51;;;;;;;13.38;6.85;;;4.50;99.90;;;;;;5052420;28;20040;-64
2023/01/16 04:54:18;;;;;;;12.00;7.93;;;4.50;99.90;;;;;;5052401;28;20490;-64
2023/01/16 04:56:44;;;;;;;12.27;7.32;;;4.50;99.90;;;;;;5052157;28;20393;-64
2023/01/16 04:59:12;;;;;;;12.80;7.40;;;4.50;99.90;;;;;;5053037;28;20032;-66
2023/01/16 05:01:38;;;;;;;15.07;8.75;;;4.50;99.90;;;;;;5052493;28;20048;-67
2023/01/16 05:04:05;;;;;;;13.77;7.38;;;4.50;99.90;;;;;;5036019;28;20048;-67
2023/01/16 05:06:32;;;;;;;14.52;8.15;;;4.50;99.90;;;;;;5052770;28;20470;-64
2023/01/16 05:08:58;;;;;;;16.27;8.27;;;4.50;99.90;;;;;;5035080;28;20049;-64
2023/01/16 05:11:24;;;;;;;14.40;8.30;;;4.50;99.90;;;;;;5052682;28;20120;-66
2023/01/16 05:13:49;;;;;;;15.40;8.93;;;4.50;99.90;;;;;;5051618;28;20116;-67
2023/01/16 05:16:15;;;;;;;15.20;8.80;;;4.50;99.90;;;;;;5052203;28;20049;-67
2023/01/16 05:18:41;;;;;;;15.43;8.57;;;4.60;99.90;;;;;;5050801;28;20102;-67
2023/01/16 05:21:06;;;;;;;16.10;9.82;;;4.50;99.90;;;;;;5053556;28;20033;-67
2023/01/16 05:23:37;;;;;;;16.65;9.45;;;4.60;99.90;;;;;;5035191;28;20052;-67
2023/01/16 05:26:03;;;;;;;14.52;8.10;;;4.60;99.90;;;;;;5050781;28;20057;-66
2023/01/16 05:28:30;;;;;;;16.30;8.73;;;4.60;99.90;;;;;;5053282;28;20077;-66
2023/01/16 05:30:56;;;;;;;15.27;8.85;;;4.60;99.90;;;;;;5034662;28;20130;-64
2023/01/16 05:33:22;;;;;;;12.93;8.10;;;4.60;99.90;;;;;;5052187;28;20084;-64
2023/01/16 05:35:48;;;;;;;15.32;9.02;;;4.60;99.90;;;;;;5051401;28;20501;-64
2023/01/16 05:38:15;;;;;;;15.45;8.95;;;4.60;99.90;;;;;;5053052;28;20041;-64
2023/01/16 05:40:41;;;;;;;19.92;10.35;;;4.60;99.90;;;;;;5050321;28;20197;-64
2023/01/16 05:43:07;;;;;;;16.42;9.65;;;4.60;99.90;;;;;;5051632;28;20044;-65
2023/01/16 05:45:33;;;;;;;15.10;8.70;;;4.60;99.90;;;;;;5051404;28;20044;-65
2023/01/16 05:47:58;;;;;;;15.40;8.77;;;4.50;99.90;;;;;;5051733;28;20090;-65
2023/01/16 05:50:24;;;;;;;14.38;9.10;;;4.50;99.90;;;;;;5052682;28;20045;-65
2023/01/16 05:52:50;;;;;;;14.90;9.32;;;4.50;99.90;;;;;;5052219;28;20040;-64
2023/01/16 05:55:16;;;;;;;17.67;10.18;;;4.50;99.90;;;;;;5050891;28;20033;-65
2023/01/16 05:57:42;;;;;;;15.70;9.40;;;4.50;99.90;;;;;;5051222;28;20066;-65
2023/01/16 06:00:08;;;;;;;19.15;9.77;;;4.50;99.90;;;;;;5052596;28;20047;-65
2023/01/16 06:02:34;;;;;;;19.42;10.85;;;4.50;99.90;;;;;;5050675;28;20044;-65
2023/01/16 06:05:00;;;;;;;16.20;10.27;;;4.40;99.90;;;;;;5051134;28;20049;-65
2023/01/16 06:07:25;;;;;;;17.38;10.30;;;4.50;99.90;;;;;;5050849;28;20051;-65
2023/01/16 06:09:51;;;;;;;14.73;9.68;;;4.50;99.90;;;;;;5050263;28;20049;-65
2023/01/16 06:12:18;;;;;;;19.45;9.77;;;4.40;99.90;;;;;;5051255;28;20051;-65
2023/01/16 06:14:44;;;;;;;19.90;10.00;;;4.40;99.90;;;;;;5050099;28;20109;-65
2023/01/16 06:17:11;;;;;;;21.23;10.35;;;4.40;99.90;;;;;;5051163;28;20477;-65
2023/01/16 06:19:36;;;;;;;15.75;9.48;;;4.50;99.90;;;;;;5050901;28;20501;-65
2023/01/16 06:22:02;;;;;;;19.48;11.02;;;4.50;99.90;;;;;;5033291;28;20045;-65
2023/01/16 06:24:28;;;;;;;16.25;10.20;;;4.40;99.90;;;;;;5051106;28;20065;-64
2023/01/16 06:26:53;;;;;;;16.15;10.68;;;4.40;99.90;;;;;;5051692;28;20045;-65
2023/01/16 06:29:19;;;;;;;17.73;10.30;;;4.40;99.90;;;;;;5051613;28;20444;-65
2023/01/16 06:31:45;;;;;;;23.85;11.27;;;4.40;99.90;;;;;;5050422;28;20435;-65
2023/01/16 06:34:11;;;;;;;16.98;10.63;;;4.40;99.90;;;;;;5050851;28;20383;-65
2023/01/16 06:36:36;;;;;;;16.00;10.45;;;4.40;99.90;;;;;;5033233;28;20041;-65
2023/01/16 06:39:02;;;;;;;19.63;9.70;;;4.40;99.90;;;;;;5050513;28;20037;-65
2023/01/16 06:41:28;;;;;;;18.80;10.73;;;4.40;99.90;;;;;;5050980;28;20060;-65
2023/01/16 06:43:53;;;;;;;16.27;10.15;;;4.40;99.90;;;;;;5049779;28;20393;-65
2023/01/16 06:46:19;;;;;;;22.13;10.68;;;4.40;99.90;;;;;;5051923;28;20123;-65
2023/01/16 06:48:45;;;;;;;20.13;10.43;;;4.30;99.90;;;;;;5051801;28;20049;-65
2023/01/16 06:51:10;;;;;;;17.60;9.77;;;4.30;99.90;;;;;;5051130;28;20041;-65
2023/01/16 06:53:37;;;;;;;16.20;9.95;;;4.40;99.90;;;;;;5050575;28;20037;-65
2023/01/16 06:56:03;;;;;;;18.85;10.40;;;4.30;99.90;;;;;;5051721;28;20044;-65
2023/01/16 06:58:28;;;;;;;20.85;10.00;;;4.30;99.90;;;;;;5051178;28;20158;-65
2023/01/16 07:00:55;;;;;;;18.52;10.27;;;4.30;99.90;;;;;;5051226;28;20613;-65
2023/01/16 07:03:21;;;;;;;17.77;10.30;;;4.20;99.90;;;;;;5051917;28;20482;-65
2023/01/16 07:05:47;;;;;;;16.58;9.10;;;4.20;99.90;;;;;;5049141;28;20037;-65
2023/01/16 07:08:13;;;;;;;16.75;9.55;;;4.20;99.90;;;;;;5050562;28;20043;-65
2023/01/16 07:10:39;;;;;;;17.67;10.13;;;4.20;99.90;;;;;;5049930;28;20087;-65
2023/01/16 07:13:05;;;;;;;17.80;9.60;;;4.10;99.90;;;;;;5050141;28;20432;-65
2023/01/16 07:23:59;;;;;;;16.15;8.65;;;4.10;99.90;;;;;;5049795;28;20401;-65
2023/01/16 07:26:26;;;;;;;14.40;7.85;;;4.10;99.90;;;;;;5034467;28;20050;-65
2023/01/16 07:28:53;;;;;;;14.63;8.05;;;4.10;99.90;;;;;;5045840;28;20037;-65
2023/01/16 07:31:20;;;;;;;15.55;7.43;;;4.00;99.90;;;;;;5054620;28;20041;-65
2023/01/16 07:33:46;;;;;;;14.25;7.65;;;4.00;99.90;;;;;;5052334;28;20371;-66
2023/01/16 07:36:11;;;;;;;25.92;15.57;;;4.00;99.90;;;;;;5053547;28;20091;-66
2023/01/16 07:38:37;;;;;;;14.48;7.53;;;4.00;99.90;;;;;;5052978;28;20039;-66
2023/01/16 07:41:03;;;;;;;14.23;7.97;;;4.00;99.90;;;;;;5051709;28;20482;-65
2023/01/16 07:43:29;;;;;;;15.05;7.57;;;4.00;99.90;;;;;;5051721;28;20102;-65
2023/01/16 07:45:55;;;;;;;13.20;8.23;;;4.00;99.90;;;;;;5051913;28;20041;-65
2023/01/16 07:48:24;;;;;;;14.20;7.97;;;4.00;99.90;;;;;;5049316;28;20033;-65
2023/01/16 07:50:57;;;;;;;15.73;13.02;;;3.90;99.90;;;;;;5054364;28;20064;-65
2023/01/16 07:53:25;;;;;;;14.32;7.38;;;3.90;99.90;;;;;;5053061;28;20036;-65
2023/01/16 07:55:53;;;;;;;10.55;6.43;;;3.90;99.90;;;;;;5053121;28;20474;-65
2023/01/16 07:58:20;;;;;;;13.80;7.15;;;3.90;99.90;;;;;;5055166;28;20033;-65
2023/01/16 08:00:47;;;;;;;11.00;6.57;;;3.90;99.90;;;;;;5053347;28;20036;-65
2023/01/16 08:03:14;;;;;;;11.48;6.13;;;3.90;99.90;;;;;;5042883;28;20084;-65
2023/01/16 08:05:40;;;;;;;13.60;6.60;;;3.80;99.90;;;;;;5030844;28;20098;-66
2023/01/16 08:08:06;;;;;;;11.95;5.72;;;3.90;99.90;;;;;;5043556;28;20049;-65
2023/01/16 08:10:31;;;;;;;14.38;6.63;;;3.80;99.90;;;;;;5050529;28;20098;-66
2023/01/16 08:12:57;;;;;;;11.32;6.43;;;3.80;99.90;;;;;;5051897;28;20383;-66
2023/01/16 08:15:23;;;;;;;12.35;5.75;;;3.80;99.90;;;;;;5049896;28;20382;-66
2023/01/16 08:17:48;;;;;;;10.07;5.53;;;3.80;99.90;;;;;;5050266;28;20051;-65
2023/01/16 08:20:14;;;;;;;10.93;5.75;;;3.80;99.90;;;;;;5048636;28;20048;-65
2023/01/16 08:22:49;;;;;;;13.13;5.53;;;3.80;99.90;;;;;;5049444;28;20060;-66
2023/01/16 08:25:17;;;;;;;9.88;6.20;;;3.80;99.90;;;;;;5050914;28;20053;-65
2023/01/16 08:27:43;;;;;;;12.98;5.90;;;3.80;99.90;;;;;;5045213;28;20470;-66
2023/01/16 08:30:10;;;;;;;11.82;5.88;;;3.80;99.90;;;;;;5050261;28;20068;-65
2023/01/16 08:32:35;;;;;;;11.50;5.45;;;3.80;99.90;;;;;;5049668;28;20041;-65
2023/01/16 08:35:03;;;;;;;12.57;5.82;;;3.80;99.90;;;;;;5050469;28;20044;-64
2023/01/16 08:37:30;;;;;;;13.85;5.35;;;3.90;99.90;;;;;;5050528;28;20069;-65
2023/01/16 08:39:55;;;;;;;11.88;5.75;;;3.90;99.90;;;;;;5049135;28;20044;-64
2023/01/16 08:53:22;;;;;;;10.40;5.20;;;4.00;99.90;;;;;;5062964;28;20045;-65
2023/01/16 08:55:49;;;;;;;13.45;5.18;;;4.00;99.90;;;;;;5050138;28;20524;-65
2023/01/16 08:58:15;;;;;;;12.48;5.65;;;4.00;99.90;;;;;;5048491;28;20041;-65
2023/01/16 09:00:41;;;;;;;11.38;4.40;;;4.00;99.90;;;;;;5032238;28;20857;-65
2023/01/16 09:03:07;;;;;;;11.15;5.32;;;4.10;99.90;;;;;;5050408;28;20049;-65
2023/01/16 09:05:33;;;;;;;14.85;5.18;;;4.00;99.90;;;;;;5048930;28;20131;-65
2023/01/16 09:07:58;;;;;;;13.02;4.72;;;4.10;99.90;;;;;;5050073;28;20041;-65
2023/01/16 09:10:24;;;;;;;10.07;4.72;;;4.10;99.90;;;;;;5032258;28;20049;-65
2023/01/16 09:15:34;;;;;;;11.70;4.88;;;4.20;99.90;;;;;;5049140;28;20041;-65
2023/01/16 09:18:00;;;;;;;15.32;8.15;;;4.10;99.90;;;;;;5048045;28;20094;-64
2023/01/16 09:20:26;;;;;;;10.50;4.82;;;4.10;99.90;;;;;;5048728;28;20051;-64
2023/01/16 09:23:02;;;;;;;13.05;4.75;;;4.20;99.90;;;;;;5042211;28;20508;-65
2023/01/16 09:25:29;;;;;;;9.50;4.20;;;4.20;99.90;;;;;;5050572;28;20060;-65
2023/01/16 09:27:55;;;;;;;8.40;4.40;;;4.20;99.90;;;;;;5052624;28;20059;-65
2023/01/16 09:30:21;;;;;;;9.32;3.85;;;4.20;99.90;;;;;;5051514;28;20045;-65
2023/01/16 09:32:47;;;;;;;11.15;4.47;;;4.20;99.90;;;;;;5051853;28;20041;-65
2023/01/16 09:35:14;;;;;;;13.55;5.25;;;4.20;99.90;;;;;;5051895;28;20563;-64
2023/01/16 09:37:42;;;;;;;10.82;4.70;;;4.30;99.90;;;;;;5051041;28;20045;-64
2023/01/16 09:40:20;;;;;;;10.73;5.15;;;4.30;99.90;;;;;;5036759;28;20040;-65
2023/01/16 09:45:58;;;;;;;9.32;4.93;;;4.30;99.90;;;;;;5050584;28;20060;-64
2023/01/16 09:48:31;;;;;;;11.55;4.80;;;4.40;99.90;;;;;;5052875;28;20048;-65
2023/01/16 09:51:06;;;;;;;28.52;13.75;;;4.40;99.90;;;;;;5050996;28;20124;-64
2023/01/16 09:59:50;;;;;;;18.95;11.05;;;4.30;99.90;;;;;;5051242;28;20041;-64
2023/01/16 10:02:26;;;;;;;10.20;5.85;;;4.40;99.90;;;;;;5052526;28;20044;-65
2023/01/16 10:04:55;;;;;;;12.15;5.70;;;4.40;99.90;;;;;;5050711;28;20060;-64
2023/01/16 10:07:39;;;;;;;13.90;4.95;;;4.40;99.90;;;;;;5051884;28;20043;-64
2023/01/16 10:10:32;;;;;;;9.85;5.38;;;4.30;99.90;;;;;;5052441;28;20044;-65
2023/01/16 10:13:19;;;;;;;10.05;4.53;;;4.30;99.90;;;;;;5050791;28;20434;-64
2023/01/16 10:15:57;;;;;;;10.20;4.18;;;4.30;99.90;;;;;;5049669;28;20037;-64
2023/01/16 10:18:50;;;;;;;7.90;4.60;;;4.30;99.90;;;;;;5052385;28;20401;-65
2023/01/16 10:21:31;;;;;;;9.52;4.45;;;4.40;99.90;;;;;;5050668;28;20131;-64
2023/01/16 10:24:06;;;;;;;11.95;4.50;;;4.30;99.90;;;;;;5050582;28;20053;-64
2023/01/16 10:26:37;;;;;;;8.98;4.60;;;4.30;99.90;;;;;;5051059;28;20053;-65
2023/01/16 10:29:30;;;;;;;15.95;4.53;;;4.40;99.90;;;;;;5049949;28;20130;-65
2023/01/16 10:32:13;;;;;;;10.00;4.75;;;4.40;99.90;;;;;;5050495;28;20486;-65
2023/01/16 10:35:06;;;;;;;10.93;4.30;;;4.40;99.90;;;;;;5051677;28;20102;-65
2023/01/16 10:37:35;;;;;;;10.95;4.78;;;4.30;99.90;;;;;;5034328;28;20079;-64
2023/01/16 10:40:10;;;;;;;8.00;3.83;;;4.40;99.90;;;;;;5051980;28;20033;-65
2023/01/16 10:50:59;;;;;;;7.80;4.10;;;4.30;99.90;;;;;;5053748;28;20053;-65
2023/01/16 10:53:26;;;;;;;8.98;3.90;;;4.40;99.90;;;;;;5054766;28;20037;-64
2023/01/16 10:55:53;;;;;;;7.80;3.75;;;4.30;99.90;;;;;;5051984;28;20048;-64
2023/01/16 10:58:31;;;;;;;8.88;4.72;;;4.40;99.90;;;;;;5054529;28;20041;-63
2023/01/16 11:01:14;;;;;;;40.80;17.25;;;4.40;99.90;;;;;;5046608;28;20041;-64
2023/01/16 11:03:47;;;;;;;11.25;6.72;;;4.40;99.90;;;;;;5052215;28;20033;-63
2023/01/16 11:06:25;;;;;;;16.60;7.60;;;4.40;99.90;;;;;;5042561;28;20410;-63
2023/01/16 11:09:04;;;;;;;10.10;3.03;;;4.30;99.90;;;;;;5049416;28;20151;-62
2023/01/16 11:20:38;;;;;;;8.35;4.50;;;4.20;99.90;;;;;;5031776;28;20049;-62
2023/01/16 11:23:21;;;;;;;7.22;2.63;;;4.20;99.90;;;;;;5034284;28;20398;-63
2023/01/16 11:25:49;;;;;;;6.15;3.22;;;4.20;99.90;;;;;;5050002;28;20060;-63
2023/01/16 11:28:27;;;;;;;6.40;2.80;;;4.20;99.90;;;;;;5030579;28;20044;-63
2023/01/16 11:30:56;;;;;;;7.03;3.00;;;4.10;99.90;;;;;;5051519;28;20051;-63
2023/01/16 11:33:33;;;;;;;7.05;2.30;;;4.10;99.90;;;;;;5050160;28;20056;-62
2023/01/16 11:36:01;;;;;;;7.32;2.47;;;4.10;99.90;;;;;;5050223;28;20041;-63
2023/01/16 11:38:29;;;;;;;4.65;1.90;;;4.00;99.90;;;;;;5050245;28;20071;-62
2023/01/16 11:40:57;;;;;;;6.47;2.28;;;4.00;99.90;;;;;;5049792;28;20033;-62
2023/01/16 11:46:19;;;;;;;4.07;2.15;;;3.90;99.90;;;;;;5049651;28;20524;-62
2023/01/16 11:48:48;;;;;;;4.13;1.60;;;3.90;99.90;;;;;;5050540;28;20095;-63
2023/01/16 11:51:17;;;;;;;6.43;1.80;;;3.90;99.90;;;;;;5050020;28;20041;-62
2023/01/16 11:53:45;;;;;;;6.38;3.15;;;3.90;99.90;;;;;;5048476;28;20049;-62
2023/01/16 11:56:47;;;;;;;3.33;1.63;;;3.80;99.90;;;;;;5049832;28;20071;-62
2023/01/16 11:59:19;;;;;;;6.95;2.90;;;3.80;99.90;;;;;;5050041;28;20044;-62
2023/01/16 12:05:53;;;;;;;;;;;3.80;99.90;;;;;;5047760;28;20072;-62
2023/01/16 12:07:56;;;;;;;33.67;12.35;;;3.70;99.90;;;;;;5048762;28;19924;-62
2023/01/16 12:10:25;;;;;;;111.75;47.17;;;3.70;99.90;;;;;;5041429;28;20525;-62
2023/01/16 12:16:13;;;;;;;12.43;6.10;;;3.70;99.90;;;;;;5049240;28;20532;-62
2023/01/16 12:19:01;;;;;;;16.42;8.07;;;3.70;99.90;;;;;;5050476;28;20045;-62
2023/01/16 12:21:45;;;;;;;13.45;6.40;;;3.70;99.90;;;;;;5040256;28;20055;-62
2023/01/16 12:24:35;;;;;;;25.77;16.52;;;3.60;99.90;;;;;;5049199;28;20057;-62
2023/01/16 12:27:29;;;;;;;19.38;11.50;;;3.60;99.90;;;;;;5049822;28;20049;-62
2023/01/16 12:30:15;;;;;;;16.38;10.60;;;3.60;99.90;;;;;;5050007;28;20045;-62
2023/01/16 12:33:12;;;;;;;30.55;19.20;;;3.60;99.90;;;;;;5043222;28;20504;-62
2023/01/16 12:35:56;;;;;;;17.48;8.48;;;3.60;99.90;;;;;;5049855;28;20053;-62
2023/01/16 12:38:37;;;;;;;19.90;9.45;;;3.60;99.90;;;;;;5049388;28;20098;-62
2023/01/16 12:44:38;;;;;;;5.80;2.20;;;3.60;99.90;;;;;;5048504;28;20520;-62
2023/01/16 12:47:17;;;;;;;4.03;2.00;;;3.50;99.90;;;;;;5030969;28;20076;-62
2023/01/16 12:50:24;;;;;;;4.75;2.30;;;3.60;99.90;;;;;;5040464;28;20041;-62
2023/01/16 12:53:04;;;;;;;5.45;3.10;;;3.60;99.90;;;;;;5029700;28;20065;-62
2023/01/16 12:55:48;;;;;;;4.35;2.20;;;3.60;99.90;;;;;;5050417;28;20409;-62
2023/01/16 12:58:22;;;;;;;5.00;2.53;;;3.60;99.90;;;;;;5030173;28;20114;-62
2023/01/16 13:00:58;;;;;;;6.28;2.65;;;3.70;99.90;;;;;;5048981;28;20122;-62
2023/01/16 13:03:39;;;;;;;6.68;2.90;;;3.60;99.90;;;;;;5048363;28;20493;-62
2023/01/16 13:06:08;;;;;;;6.18;2.95;;;3.70;99.90;;;;;;5049078;28;20044;-62
2023/01/16 13:08:53;;;;;;;6.57;3.17;;;3.70;99.90;;;;;;5050520;28;20033;-62
2023/01/16 13:14:12;;;;;;;5.10;2.60;;;3.80;99.90;;;;;;5049319;28;20137;-62
2023/01/16 13:16:44;;;;;;;6.07;3.42;;;3.80;99.90;;;;;;5049464;28;20048;-62
2023/01/16 13:19:16;;;;;;;6.30;3.00;;;3.80;99.90;;;;;;5049058;28;20128;-62
2023/01/16 13:22:06;;;;;;;8.38;5.10;;;3.80;99.90;;;;;;5048809;28;20060;-62
2023/01/16 13:24:53;;;;;;;9.15;5.68;;;3.80;99.90;;;;;;5049807;28;20064;-62
2023/01/16 13:27:36;;;;;;;6.05;2.78;;;3.90;99.90;;;;;;5049039;28;20055;-62
2023/01/16 13:30:08;;;;;;;6.13;2.53;;;3.90;99.90;;;;;;5048247;28;20041;-62
2023/01/16 13:32:40;;;;;;;5.13;2.33;;;3.90;99.90;;;;;;5040241;28;20102;-62
2023/01/16 13:35:26;;;;;;;4.72;2.33;;;4.00;99.90;;;;;;5048599;28;20037;-62
2023/01/16 13:38:13;;;;;;;6.45;2.50;;;4.00;99.90;;;;;;5047635;28;20205;-62
2023/01/16 13:41:07;;;;;;;4.40;2.20;;;4.10;99.90;;;;;;5047564;28;20120;-62
2023/01/16 13:46:23;;;;;;;4.53;2.40;;;4.10;99.90;;;;;;5047922;28;20057;-62
2023/01/16 13:48:56;;;;;;;6.72;2.90;;;4.10;99.90;;;;;;5048217;28;20493;-62
2023/01/16 13:51:25;;;;;;;5.18;2.95;;;4.20;99.90;;;;;;5049147;28;20107;-62
2023/01/16 13:53:59;;;;;;;7.35;2.95;;;4.10;99.90;;;;;;5047161;28;20398;-62
2023/01/16 13:56:26;;;;;;;5.18;2.95;;;4.20;99.90;;;;;;5048465;28;20036;-62
2023/01/16 13:59:06;;;;;;;5.80;3.53;;;4.20;99.90;;;;;;5047195;28;20437;-63
2023/01/16 14:01:42;;;;;;;6.28;3.65;;;4.20;99.90;;;;;;5049624;28;20072;-62
2023/01/16 14:04:14;;;;;;;6.78;3.72;;;4.20;99.90;;;;;;5045945;28;20060;-62
2023/01/16 14:10:03;;;;;;;6.78;3.47;;;4.30;99.90;;;;;;5048085;28;20489;-62
2023/01/16 14:13:11;;;;;;;8.00;4.05;;;4.30;99.90;;;;;;5048390;28;20091;-63
2023/01/16 14:16:30;;;;;;;5.60;3.53;;;4.30;99.90;;;;;;5042140;28;20111;-62
2023/01/16 14:18:56;;;;;;;6.32;3.40;;;4.30;99.90;;;;;;5040412;28;20065;-62
2023/01/16 14:21:43;;;;;;;6.65;3.30;;;4.30;99.90;;;;;;5038603;28;20045;-62
2023/01/16 14:24:19;;;;;;;6.70;4.18;;;4.30;99.90;;;;;;5047732;28;20262;-62
2023/01/16 14:26:49;;;;;;;10.38;5.25;;;4.30;99.90;;;;;;5048995;28;20142;-62
2023/01/16 14:29:24;;;;;;;6.72;4.00;;;4.40;99.90;;;;;;5048475;28;20051;-62